Spirit Lake, South Dakota
Current Conditions -  °F | °C
As of 5:53 AM on Sunday 23 Nov 2014 (Local Time) from KATY Reporting Station
Overcast Overcast  
Wind Chill: 30°   Ceiling: 6500
Heat Index: 38°   Visibility: 10mi
Dew Point: 33°   Wind: 12mph
Humidity: 83%   Direction: 310°NW
Pressure: 29.44"   Gusts: NA
Location:  44.4924°N, 97.4007°W
Report Text: KATY 231153Z AUTO 31010KT 10SM OVC065 03/01 A2944 RMK AO2 SLP982 T00330006 10033 20011 53011
Loading
Personal Weather Stations






























Interactive Weather Map New forecast layout! Learn more

10-Day Weather Forecast

Advertisements
Track Severe Weather on mobile